Sterling, MI (48659)

10:14 AM EST on February 14, 2016 (GMT -0500)
Cole Canoe Base | | Change Station
CLOSE
Current Station
Personal Weather Station
Location: Alger, MI
Elevation: 807 ft
Nearby Weather Stations

Elev 807 ft 44.18 °N, 84.07 °W | Updated 1 minute ago

Mostly Cloudy
Mostly Cloudy
15.4 °F
Feels Like 15 °F
N
0.0
Wind Variable Wind from ESE

Today
High -- | Low -- °F
--% Chance of Precip.
Yesterday
High -- | Low -- °F
Precip. -- in
Pressure 30.44 in
Visibility 10.0 miles
Clouds Mostly Cloudy 3800 ft
Windchill 15 °F
Dew Point 7 °F
Humidity 68%
Rainfall 0.00 in
Snow Depth Not available.
7:37 AM 6:03 PM
Waxing Crescent, 42% visible
METAR KIKW 141454Z AUTO 16003KT 10SM BKN038 M11/M16 A3044 RMK AO2 T11101158
Pressure 30.44 in
Visibility 10.0 miles
Clouds Mostly Cloudy 3800 ft
Windchill 15 °F
Dew Point 7 °F
Humidity 68%
Rainfall 0.00 in
Snow Depth Not available.
7:37 AM 6:03 PM
Waxing Crescent, 42% visible
METAR KIKW 141454Z AUTO 16003KT 10SM BKN038 M11/M16 A3044 RMK AO2 T11101158

10-Day Weather Forecast

Almanac

Astronomy

Feb. 14, 2016 Rise Set
Actual Time
Civil Twilight
Nautical Twilight
Astronomical Twilight
Moon
Length of Visible Light
Length of Day
Tomorrow will be .
, % of the Moon is Illuminated

Today's Extremes

State Highs State Lows

Community

WunderPhotos

Upload Photos

1,892,788 photos uploaded!

WunderBlog® & News

Nearby

Air Quality

  Air Quality AQ Index Pollutant
Not available.

Snow Depth

Station Depth Elevation

Earthquake Activity

City Distance Mag. Time & Date
Minimum magnitude displayed is 2.5.

Coastal Water Temperatures

Place Temperature

Stations

Nearby Weather Stations

Station Location Temp. Windchill Dew Point Humidity Wind Precip. Elev Updated Type
                   

Watches & Warnings

There are currently no watches in effect.